sensor_id;sensor_type;location;lat;lon;timestamp;P1;durP1;ratioP1;P2;durP2;ratioP2
32746;SDS011;19118;50.860;13.662;2023-02-12T00:03:58;361.70;;;57.63;;
32746;SDS011;19118;50.860;13.662;2023-02-12T00:08:58;459.23;;;63.53;;
32746;SDS011;19118;50.860;13.662;2023-02-12T00:14:00;597.40;;;69.30;;
32746;SDS011;19118;50.860;13.662;2023-02-12T00:19:01;546.25;;;71.03;;
32746;SDS011;19118;50.860;13.662;2023-02-12T00:24:01;546.97;;;72.18;;
32746;SDS011;19118;50.860;13.662;2023-02-12T00:29:02;635.65;;;77.05;;
32746;SDS011;19118;50.860;13.662;2023-02-12T00:34:02;687.35;;;81.00;;
32746;SDS011;19118;50.860;13.662;2023-02-12T00:39:03;509.90;;;71.73;;
32746;SDS011;19118;50.860;13.662;2023-02-12T00:44:03;411.35;;;63.25;;
32746;SDS011;19118;50.860;13.662;2023-02-12T00:49:03;659.70;;;77.88;;
32746;SDS011;19118;50.860;13.662;2023-02-12T00:54:04;604.08;;;74.43;;
32746;SDS011;19118;50.860;13.662;2023-02-12T00:59:04;645.97;;;76.57;;
32746;SDS011;19118;50.860;13.662;2023-02-12T01:04:05;658.17;;;77.45;;
32746;SDS011;19118;50.860;13.662;2023-02-12T01:09:05;489.65;;;67.85;;
32746;SDS011;19118;50.860;13.662;2023-02-12T01:14:06;795.92;;;85.78;;
32746;SDS011;19118;50.860;13.662;2023-02-12T01:19:07;664.53;;;73.85;;
32746;SDS011;19118;50.860;13.662;2023-02-12T01:24:07;642.38;;;73.97;;
32746;SDS011;19118;50.860;13.662;2023-02-12T01:29:09;588.30;;;72.05;;
32746;SDS011;19118;50.860;13.662;2023-02-12T01:34:10;555.80;;;68.43;;
32746;SDS011;19118;50.860;13.662;2023-02-12T01:39:12;483.42;;;65.78;;
32746;SDS011;19118;50.860;13.662;2023-02-12T01:44:15;426.50;;;63.22;;
32746;SDS011;19118;50.860;13.662;2023-02-12T01:49:21;634.05;;;71.55;;
32746;SDS011;19118;50.860;13.662;2023-02-12T01:54:40;425.95;;;56.35;;
32746;SDS011;19118;50.860;13.662;2023-02-12T01:59:42;935.42;;;87.32;;
32746;SDS011;19118;50.860;13.662;2023-02-12T02:04:49;776.08;;;80.32;;
32746;SDS011;19118;50.860;13.662;2023-02-12T02:09:53;614.65;;;72.28;;
32746;SDS011;19118;50.860;13.662;2023-02-12T02:14:55;607.20;;;70.35;;
32746;SDS011;19118;50.860;13.662;2023-02-12T02:25:29;685.50;;;77.55;;
32746;SDS011;19118;50.860;13.662;2023-02-12T02:36:09;658.53;;;74.75;;
32746;SDS011;19118;50.860;13.662;2023-02-12T02:41:17;589.28;;;75.40;;
32746;SDS011;19118;50.860;13.662;2023-02-12T02:46:46;564.72;;;71.68;;
32746;SDS011;19118;50.860;13.662;2023-02-12T02:51:48;639.20;;;74.75;;
32746;SDS011;19118;50.860;13.662;2023-02-12T02:56:55;519.80;;;67.43;;
32746;SDS011;19118;50.860;13.662;2023-02-12T03:02:05;618.10;;;76.63;;
32746;SDS011;19118;50.860;13.662;2023-02-12T03:12:18;346.67;;;55.67;;
32746;SDS011;19118;50.860;13.662;2023-02-12T03:17:27;355.73;;;58.73;;
32746;SDS011;19118;50.860;13.662;2023-02-12T03:22:35;274.80;;;51.35;;
32746;SDS011;19118;50.860;13.662;2023-02-12T03:27:40;339.35;;;53.30;;
32746;SDS011;19118;50.860;13.662;2023-02-12T03:32:54;206.70;;;42.72;;
32746;SDS011;19118;50.860;13.662;2023-02-12T03:43:52;226.95;;;37.88;;
32746;SDS011;19118;50.860;13.662;2023-02-12T03:49:16;161.35;;;35.40;;
32746;SDS011;19118;50.860;13.662;2023-02-12T03:54:23;210.60;;;37.13;;
32746;SDS011;19118;50.860;13.662;2023-02-12T03:59:24;178.55;;;36.92;;
32746;SDS011;19118;50.860;13.662;2023-02-12T04:04:25;266.10;;;42.97;;
32746;SDS011;19118;50.860;13.662;2023-02-12T04:09:27;388.73;;;49.85;;
32746;SDS011;19118;50.860;13.662;2023-02-12T04:19:54;725.25;;;75.75;;
32746;SDS011;19118;50.860;13.662;2023-02-12T04:30:30;575.35;;;64.90;;
32746;SDS011;19118;50.860;13.662;2023-02-12T04:35:39;635.47;;;68.55;;
32746;SDS011;19118;50.860;13.662;2023-02-12T04:40:46;587.50;;;67.95;;
32746;SDS011;19118;50.860;13.662;2023-02-12T04:45:48;625.20;;;68.88;;
32746;SDS011;19118;50.860;13.662;2023-02-12T04:50:48;623.50;;;68.27;;
32746;SDS011;19118;50.860;13.662;2023-02-12T04:55:48;292.73;;;48.75;;
32746;SDS011;19118;50.860;13.662;2023-02-12T05:00:49;315.05;;;49.05;;
32746;SDS011;19118;50.860;13.662;2023-02-12T05:05:50;399.53;;;54.47;;
32746;SDS011;19118;50.860;13.662;2023-02-12T05:10:50;453.07;;;55.63;;
32746;SDS011;19118;50.860;13.662;2023-02-12T05:15:50;668.63;;;67.63;;
32746;SDS011;19118;50.860;13.662;2023-02-12T05:20:54;475.67;;;58.27;;
32746;SDS011;19118;50.860;13.662;2023-02-12T05:26:00;629.70;;;61.60;;
32746;SDS011;19118;50.860;13.662;2023-02-12T05:31:03;856.13;;;79.03;;
32746;SDS011;19118;50.860;13.662;2023-02-12T05:36:09;384.17;;;52.60;;
32746;SDS011;19118;50.860;13.662;2023-02-12T05:41:12;474.95;;;58.28;;
32746;SDS011;19118;50.860;13.662;2023-02-12T05:46:18;540.85;;;62.30;;
32746;SDS011;19118;50.860;13.662;2023-02-12T05:51:22;358.60;;;53.08;;
32746;SDS011;19118;50.860;13.662;2023-02-12T05:56:27;621.47;;;67.63;;
32746;SDS011;19118;50.860;13.662;2023-02-12T06:01:31;537.67;;;63.17;;
32746;SDS011;19118;50.860;13.662;2023-02-12T06:06:33;433.67;;;55.97;;
32746;SDS011;19118;50.860;13.662;2023-02-12T06:11:34;299.63;;;47.00;;
32746;SDS011;19118;50.860;13.662;2023-02-12T06:16:34;270.58;;;43.90;;
32746;SDS011;19118;50.860;13.662;2023-02-12T06:21:35;423.92;;;55.15;;
32746;SDS011;19118;50.860;13.662;2023-02-12T06:26:35;268.50;;;44.43;;
32746;SDS011;19118;50.860;13.662;2023-02-12T06:31:35;270.88;;;43.40;;
32746;SDS011;19118;50.860;13.662;2023-02-12T06:36:37;448.50;;;49.22;;
32746;SDS011;19118;50.860;13.662;2023-02-12T06:41:39;308.25;;;40.50;;
32746;SDS011;19118;50.860;13.662;2023-02-12T06:46:40;347.25;;;41.42;;
32746;SDS011;19118;50.860;13.662;2023-02-12T06:51:41;590.47;;;52.55;;
32746;SDS011;19118;50.860;13.662;2023-02-12T06:56:41;698.45;;;63.83;;
32746;SDS011;19118;50.860;13.662;2023-02-12T07:01:42;487.90;;;51.35;;
32746;SDS011;19118;50.860;13.662;2023-02-12T07:06:43;253.15;;;38.03;;
32746;SDS011;19118;50.860;13.662;2023-02-12T07:11:43;184.40;;;33.72;;
32746;SDS011;19118;50.860;13.662;2023-02-12T07:16:44;799.08;;;68.65;;
32746;SDS011;19118;50.860;13.662;2023-02-12T07:21:44;260.27;;;38.30;;
32746;SDS011;19118;50.860;13.662;2023-02-12T07:26:44;167.63;;;36.63;;
32746;SDS011;19118;50.860;13.662;2023-02-12T07:31:45;386.48;;;44.85;;
32746;SDS011;19118;50.860;13.662;2023-02-12T07:36:45;214.53;;;38.83;;
32746;SDS011;19118;50.860;13.662;2023-02-12T07:41:46;419.92;;;47.65;;
32746;SDS011;19118;50.860;13.662;2023-02-12T07:46:47;336.50;;;44.38;;
32746;SDS011;19118;50.860;13.662;2023-02-12T07:51:48;261.67;;;43.78;;
32746;SDS011;19118;50.860;13.662;2023-02-12T07:56:49;184.50;;;38.70;;
32746;SDS011;19118;50.860;13.662;2023-02-12T08:01:50;135.52;;;34.15;;
32746;SDS011;19118;50.860;13.662;2023-02-12T08:06:52;159.63;;;36.25;;
32746;SDS011;19118;50.860;13.662;2023-02-12T08:11:54;191.60;;;36.25;;
32746;SDS011;19118;50.860;13.662;2023-02-12T08:16:54;140.65;;;34.63;;
32746;SDS011;19118;50.860;13.662;2023-02-12T08:21:55;113.40;;;32.77;;
32746;SDS011;19118;50.860;13.662;2023-02-12T08:26:56;120.03;;;32.33;;
32746;SDS011;19118;50.860;13.662;2023-02-12T08:31:58;137.27;;;35.00;;
32746;SDS011;19118;50.860;13.662;2023-02-12T08:37:00;113.22;;;33.83;;
32746;SDS011;19118;50.860;13.662;2023-02-12T08:42:01;110.53;;;34.10;;
32746;SDS011;19118;50.860;13.662;2023-02-12T08:47:01;97.90;;;31.17;;
32746;SDS011;19118;50.860;13.662;2023-02-12T08:52:02;93.00;;;31.50;;
32746;SDS011;19118;50.860;13.662;2023-02-12T08:57:02;91.03;;;31.52;;
32746;SDS011;19118;50.860;13.662;2023-02-12T09:02:03;100.05;;;30.00;;
32746;SDS011;19118;50.860;13.662;2023-02-12T09:07:07;86.65;;;30.38;;
32746;SDS011;19118;50.860;13.662;2023-02-12T09:12:07;87.03;;;29.13;;
32746;SDS011;19118;50.860;13.662;2023-02-12T09:17:08;68.18;;;27.13;;
32746;SDS011;19118;50.860;13.662;2023-02-12T09:22:08;66.23;;;25.30;;
32746;SDS011;19118;50.860;13.662;2023-02-12T09:27:08;62.67;;;23.43;;
32746;SDS011;19118;50.860;13.662;2023-02-12T09:32:09;60.65;;;21.83;;
32746;SDS011;19118;50.860;13.662;2023-02-12T09:37:09;77.35;;;28.95;;
32746;SDS011;19118;50.860;13.662;2023-02-12T09:52:55;51.15;;;18.92;;
32746;SDS011;19118;50.860;13.662;2023-02-12T09:57:59;43.83;;;16.92;;
32746;SDS011;19118;50.860;13.662;2023-02-12T10:03:03;27.27;;;12.10;;
32746;SDS011;19118;50.860;13.662;2023-02-12T10:24:47;35.40;;;11.93;;
32746;SDS011;19118;50.860;13.662;2023-02-12T10:29:56;31.25;;;9.98;;
32746;SDS011;19118;50.860;13.662;2023-02-12T10:34:58;35.35;;;9.90;;
32746;SDS011;19118;50.860;13.662;2023-02-12T10:40:00;33.60;;;9.80;;
32746;SDS011;19118;50.860;13.662;2023-02-12T10:45:05;27.02;;;9.65;;
32746;SDS011;19118;50.860;13.662;2023-02-12T10:50:16;25.57;;;10.10;;
32746;SDS011;19118;50.860;13.662;2023-02-12T11:00:32;24.15;;;8.68;;
32746;SDS011;19118;50.860;13.662;2023-02-12T11:05:35;25.92;;;9.23;;
32746;SDS011;19118;50.860;13.662;2023-02-12T11:10:39;17.10;;;7.15;;
32746;SDS011;19118;50.860;13.662;2023-02-12T11:15:47;19.52;;;7.38;;
32746;SDS011;19118;50.860;13.662;2023-02-12T11:20:49;17.48;;;6.35;;
32746;SDS011;19118;50.860;13.662;2023-02-12T11:25:56;18.50;;;6.22;;
32746;SDS011;19118;50.860;13.662;2023-02-12T11:31:22;21.07;;;7.23;;
32746;SDS011;19118;50.860;13.662;2023-02-12T11:36:24;20.10;;;5.65;;
32746;SDS011;19118;50.860;13.662;2023-02-12T11:41:33;16.52;;;5.68;;
32746;SDS011;19118;50.860;13.662;2023-02-12T11:46:36;24.35;;;6.22;;
32746;SDS011;19118;50.860;13.662;2023-02-12T11:51:39;22.13;;;5.28;;
32746;SDS011;19118;50.860;13.662;2023-02-12T11:56:40;17.23;;;5.32;;
32746;SDS011;19118;50.860;13.662;2023-02-12T12:01:43;29.33;;;6.63;;
32746;SDS011;19118;50.860;13.662;2023-02-12T12:06:45;24.35;;;5.93;;
32746;SDS011;19118;50.860;13.662;2023-02-12T12:12:05;26.05;;;5.35;;
32746;SDS011;19118;50.860;13.662;2023-02-12T12:17:13;20.50;;;5.68;;
32746;SDS011;19118;50.860;13.662;2023-02-12T12:33:05;23.20;;;5.25;;
32746;SDS011;19118;50.860;13.662;2023-02-12T12:43:41;24.05;;;5.40;;
32746;SDS011;19118;50.860;13.662;2023-02-12T12:59:59;31.25;;;6.88;;
32746;SDS011;19118;50.860;13.662;2023-02-12T13:05:22;26.08;;;6.93;;
32746;SDS011;19118;50.860;13.662;2023-02-12T13:15:45;17.75;;;8.02;;
32746;SDS011;19118;50.860;13.662;2023-02-12T13:26:21;21.10;;;8.35;;
32746;SDS011;19118;50.860;13.662;2023-02-12T13:31:29;17.80;;;8.23;;
32746;SDS011;19118;50.860;13.662;2023-02-12T13:36:35;30.83;;;14.35;;
32746;SDS011;19118;50.860;13.662;2023-02-12T13:41:36;28.80;;;11.18;;
32746;SDS011;19118;50.860;13.662;2023-02-12T13:46:48;24.58;;;12.15;;
32746;SDS011;19118;50.860;13.662;2023-02-12T13:52:04;28.35;;;13.77;;
32746;SDS011;19118;50.860;13.662;2023-02-12T13:57:27;25.83;;;13.80;;
32746;SDS011;19118;50.860;13.662;2023-02-12T14:07:43;24.15;;;12.00;;
32746;SDS011;19118;50.860;13.662;2023-02-12T14:12:46;26.02;;;9.43;;
32746;SDS011;19118;50.860;13.662;2023-02-12T14:17:54;14.05;;;7.60;;
32746;SDS011;19118;50.860;13.662;2023-02-12T14:23:03;11.80;;;5.80;;
32746;SDS011;19118;50.860;13.662;2023-02-12T14:33:25;14.15;;;5.78;;
32746;SDS011;19118;50.860;13.662;2023-02-12T14:43:33;13.00;;;6.63;;
32746;SDS011;19118;50.860;13.662;2023-02-12T14:49:04;12.25;;;7.22;;
32746;SDS011;19118;50.860;13.662;2023-02-12T14:54:18;17.33;;;9.25;;
32746;SDS011;19118;50.860;13.662;2023-02-12T14:59:26;15.25;;;8.15;;
32746;SDS011;19118;50.860;13.662;2023-02-12T15:04:32;13.05;;;8.25;;
32746;SDS011;19118;50.860;13.662;2023-02-12T15:09:39;14.80;;;8.93;;
32746;SDS011;19118;50.860;13.662;2023-02-12T15:14:50;19.88;;;10.07;;
32746;SDS011;19118;50.860;13.662;2023-02-12T15:20:05;15.73;;;8.80;;
32746;SDS011;19118;50.860;13.662;2023-02-12T15:25:13;15.43;;;7.72;;
32746;SDS011;19118;50.860;13.662;2023-02-12T15:30:23;16.55;;;7.85;;
32746;SDS011;19118;50.860;13.662;2023-02-12T15:35:26;11.95;;;7.25;;
32746;SDS011;19118;50.860;13.662;2023-02-12T15:40:30;13.55;;;7.40;;
32746;SDS011;19118;50.860;13.662;2023-02-12T15:45:34;14.60;;;6.82;;
32746;SDS011;19118;50.860;13.662;2023-02-12T15:55:59;11.73;;;6.35;;
32746;SDS011;19118;50.860;13.662;2023-02-12T16:01:02;10.38;;;6.18;;
32746;SDS011;19118;50.860;13.662;2023-02-12T16:06:06;10.27;;;6.13;;
32746;SDS011;19118;50.860;13.662;2023-02-12T16:11:13;13.63;;;6.22;;
32746;SDS011;19118;50.860;13.662;2023-02-12T16:16:26;15.63;;;6.28;;
32746;SDS011;19118;50.860;13.662;2023-02-12T16:21:28;19.08;;;7.50;;
32746;SDS011;19118;50.860;13.662;2023-02-12T16:26:29;15.15;;;8.25;;
32746;SDS011;19118;50.860;13.662;2023-02-12T16:31:31;17.20;;;8.90;;
32746;SDS011;19118;50.860;13.662;2023-02-12T16:36:32;17.23;;;8.70;;
32746;SDS011;19118;50.860;13.662;2023-02-12T16:41:33;25.02;;;10.88;;
32746;SDS011;19118;50.860;13.662;2023-02-12T16:46:50;19.98;;;10.63;;
32746;SDS011;19118;50.860;13.662;2023-02-12T16:52:17;14.93;;;9.02;;
32746;SDS011;19118;50.860;13.662;2023-02-12T16:57:21;18.27;;;10.02;;
32746;SDS011;19118;50.860;13.662;2023-02-12T17:02:22;23.80;;;13.00;;
32746;SDS011;19118;50.860;13.662;2023-02-12T17:07:23;31.50;;;15.27;;
32746;SDS011;19118;50.860;13.662;2023-02-12T17:12:27;27.48;;;14.02;;
32746;SDS011;19118;50.860;13.662;2023-02-12T17:17:28;18.88;;;10.50;;
32746;SDS011;19118;50.860;13.662;2023-02-12T17:22:28;19.47;;;10.20;;
32746;SDS011;19118;50.860;13.662;2023-02-12T17:27:28;22.03;;;11.07;;
32746;SDS011;19118;50.860;13.662;2023-02-12T17:32:29;27.77;;;12.70;;
32746;SDS011;19118;50.860;13.662;2023-02-12T17:37:29;23.13;;;11.87;;
32746;SDS011;19118;50.860;13.662;2023-02-12T17:42:29;27.03;;;12.53;;
32746;SDS011;19118;50.860;13.662;2023-02-12T17:47:30;24.15;;;13.00;;
32746;SDS011;19118;50.860;13.662;2023-02-12T17:52:30;30.90;;;15.70;;
32746;SDS011;19118;50.860;13.662;2023-02-12T17:57:31;26.27;;;14.47;;
32746;SDS011;19118;50.860;13.662;2023-02-12T18:02:31;27.95;;;13.18;;
32746;SDS011;19118;50.860;13.662;2023-02-12T18:07:32;35.65;;;14.88;;
32746;SDS011;19118;50.860;13.662;2023-02-12T18:12:33;29.88;;;13.77;;
32746;SDS011;19118;50.860;13.662;2023-02-12T18:17:34;29.88;;;14.32;;
32746;SDS011;19118;50.860;13.662;2023-02-12T18:22:35;29.10;;;13.95;;
32746;SDS011;19118;50.860;13.662;2023-02-12T18:27:36;29.30;;;13.93;;
32746;SDS011;19118;50.860;13.662;2023-02-12T18:32:38;34.13;;;15.88;;
32746;SDS011;19118;50.860;13.662;2023-02-12T18:37:39;41.22;;;17.13;;
32746;SDS011;19118;50.860;13.662;2023-02-12T18:42:40;34.72;;;16.20;;
32746;SDS011;19118;50.860;13.662;2023-02-12T18:47:41;55.22;;;20.13;;
32746;SDS011;19118;50.860;13.662;2023-02-12T18:52:41;67.53;;;27.55;;
32746;SDS011;19118;50.860;13.662;2023-02-12T18:57:41;68.03;;;28.70;;
32746;SDS011;19118;50.860;13.662;2023-02-12T19:02:42;48.60;;;21.77;;
32746;SDS011;19118;50.860;13.662;2023-02-12T19:07:42;40.33;;;19.20;;
32746;SDS011;19118;50.860;13.662;2023-02-12T19:12:42;37.63;;;16.70;;
32746;SDS011;19118;50.860;13.662;2023-02-12T19:17:43;45.43;;;18.50;;
32746;SDS011;19118;50.860;13.662;2023-02-12T19:22:43;46.10;;;17.00;;
32746;SDS011;19118;50.860;13.662;2023-02-12T19:27:43;42.70;;;16.70;;
32746;SDS011;19118;50.860;13.662;2023-02-12T19:32:44;43.63;;;16.53;;
32746;SDS011;19118;50.860;13.662;2023-02-12T19:37:45;43.80;;;15.73;;
32746;SDS011;19118;50.860;13.662;2023-02-12T19:42:45;30.57;;;14.33;;
32746;SDS011;19118;50.860;13.662;2023-02-12T19:47:45;35.17;;;13.70;;
32746;SDS011;19118;50.860;13.662;2023-02-12T19:52:46;40.75;;;15.05;;
32746;SDS011;19118;50.860;13.662;2023-02-12T19:57:47;28.70;;;12.60;;
32746;SDS011;19118;50.860;13.662;2023-02-12T20:02:47;28.10;;;12.93;;
32746;SDS011;19118;50.860;13.662;2023-02-12T20:07:47;37.30;;;14.73;;
32746;SDS011;19118;50.860;13.662;2023-02-12T20:12:48;34.07;;;13.83;;
32746;SDS011;19118;50.860;13.662;2023-02-12T20:17:48;31.67;;;12.73;;
32746;SDS011;19118;50.860;13.662;2023-02-12T20:22:48;35.20;;;14.48;;
32746;SDS011;19118;50.860;13.662;2023-02-12T20:27:49;38.10;;;15.20;;
32746;SDS011;19118;50.860;13.662;2023-02-12T20:32:50;36.58;;;14.27;;
32746;SDS011;19118;50.860;13.662;2023-02-12T20:37:50;33.67;;;13.95;;
32746;SDS011;19118;50.860;13.662;2023-02-12T20:42:50;29.23;;;12.43;;
32746;SDS011;19118;50.860;13.662;2023-02-12T20:47:51;27.80;;;12.00;;
32746;SDS011;19118;50.860;13.662;2023-02-12T20:52:51;35.27;;;12.93;;
32746;SDS011;19118;50.860;13.662;2023-02-12T20:57:51;40.73;;;15.00;;
32746;SDS011;19118;50.860;13.662;2023-02-12T21:02:52;46.40;;;14.77;;
32746;SDS011;19118;50.860;13.662;2023-02-12T21:07:53;47.20;;;15.55;;
32746;SDS011;19118;50.860;13.662;2023-02-12T21:12:54;39.17;;;13.23;;
32746;SDS011;19118;50.860;13.662;2023-02-12T21:17:54;29.23;;;12.23;;
32746;SDS011;19118;50.860;13.662;2023-02-12T21:22:54;36.47;;;14.07;;
32746;SDS011;19118;50.860;13.662;2023-02-12T21:27:55;43.43;;;17.53;;
32746;SDS011;19118;50.860;13.662;2023-02-12T21:32:55;26.37;;;12.10;;
32746;SDS011;19118;50.860;13.662;2023-02-12T21:37:55;24.47;;;10.67;;
32746;SDS011;19118;50.860;13.662;2023-02-12T21:42:56;25.43;;;10.23;;
32746;SDS011;19118;50.860;13.662;2023-02-12T21:47:56;23.27;;;10.32;;
32746;SDS011;19118;50.860;13.662;2023-02-12T21:52:57;22.80;;;9.83;;
32746;SDS011;19118;50.860;13.662;2023-02-12T21:57:57;15.87;;;8.93;;
32746;SDS011;19118;50.860;13.662;2023-02-12T22:02:57;17.40;;;8.17;;
32746;SDS011;19118;50.860;13.662;2023-02-12T22:07:58;24.10;;;11.47;;
32746;SDS011;19118;50.860;13.662;2023-02-12T22:12:59;28.90;;;15.20;;
32746;SDS011;19118;50.860;13.662;2023-02-12T22:18:00;31.25;;;16.75;;
32746;SDS011;19118;50.860;13.662;2023-02-12T22:23:00;21.73;;;11.27;;
32746;SDS011;19118;50.860;13.662;2023-02-12T22:28:00;22.00;;;9.73;;
32746;SDS011;19118;50.860;13.662;2023-02-12T22:33:01;13.83;;;7.50;;
32746;SDS011;19118;50.860;13.662;2023-02-12T22:38:01;13.40;;;6.83;;
32746;SDS011;19118;50.860;13.662;2023-02-12T22:43:01;14.65;;;5.82;;
32746;SDS011;19118;50.860;13.662;2023-02-12T22:48:02;8.43;;;5.17;;
32746;SDS011;19118;50.860;13.662;2023-02-12T22:53:02;12.98;;;5.63;;
32746;SDS011;19118;50.860;13.662;2023-02-12T22:58:02;11.57;;;5.97;;
32746;SDS011;19118;50.860;13.662;2023-02-12T23:03:03;12.30;;;5.47;;
32746;SDS011;19118;50.860;13.662;2023-02-12T23:08:04;9.80;;;4.97;;
32746;SDS011;19118;50.860;13.662;2023-02-12T23:13:05;16.77;;;7.30;;
32746;SDS011;19118;50.860;13.662;2023-02-12T23:18:05;16.23;;;6.90;;
32746;SDS011;19118;50.860;13.662;2023-02-12T23:23:05;19.07;;;8.50;;
32746;SDS011;19118;50.860;13.662;2023-02-12T23:28:06;15.20;;;7.20;;
32746;SDS011;19118;50.860;13.662;2023-02-12T23:33:06;17.33;;;7.20;;
32746;SDS011;19118;50.860;13.662;2023-02-12T23:38:07;14.90;;;6.87;;
32746;SDS011;19118;50.860;13.662;2023-02-12T23:43:07;15.83;;;7.63;;
32746;SDS011;19118;50.860;13.662;2023-02-12T23:48:08;19.92;;;8.20;;
32746;SDS011;19118;50.860;13.662;2023-02-12T23:53:08;23.65;;;8.65;;
32746;SDS011;19118;50.860;13.662;2023-02-12T23:58:10;26.88;;;10.48;;
